ěÝzenÝ letovÚho provozu ╚eskÚ republiky
Letiste: LKPD Aktualizace: 17.05.2022 22:57:30  UTC
 METAR LKPD 17.05. 23:00 ...
METAR LKPD 172300Z 00000KT CAVOK 09/09 Q1023 RMK BLACK=